Comfort, North Carolina
Current Conditions -  °F | °C
As of 10:35 AM on Saturday 25 Oct 2014 (Local Time) from KOAJ Reporting Station
Clear Clear  
Wind Chill: 61°   Ceiling: Unl
Heat Index: 61°   Visibility: 10mi
Dew Point: 46°   Wind: 6mph
Humidity: 59%   Direction: 70°ENE
Pressure: 30.01"   Gusts: NA
Location:  35.01°N, 77.49°W
Report Text: KOAJ 251435Z AUTO 07005KT 10SM CLR 16/08 A3001 RMK AO1
Loading
Personal Weather Stations






























Interactive Weather Map
Tropical Storm Tracking
New forecast layout! Learn more

10-Day Weather Forecast

Advertisements
Track Severe Weather on mobile